Time;durP1;ratioP1;P1;durP2;ratioP2;P2;SDS_P1;SDS_P2;PMS_P1;PMS_P2;Temp;Humidity;BMP_temperature;BMP_pressure;BME280_temperature;BME280_humidity;BME280_pressure;Samples;Min_cycle;Max_cycle;Signal;HPM_P1;HPM_P2
2022/08/01 00:01:54;;;;;;;6.90;2.55;;;;;;;22.55;67.09;100818.44;5064971;28;20458;-69
2022/08/01 00:04:20;;;;;;;4.30;2.45;;;;;;;22.31;68.29;100825.28;5061599;28;20098;-69
2022/08/01 00:06:46;;;;;;;8.23;2.80;;;;;;;22.32;68.63;100818.91;5063356;28;20049;-69
2022/08/01 00:09:13;;;;;;;4.25;2.47;;;;;;;22.33;67.68;100815.25;5064231;28;20495;-69
2022/08/01 00:11:39;;;;;;;4.97;2.55;;;;;;;22.43;66.24;100825.03;5062636;28;20037;-69
2022/08/01 00:14:05;;;;;;;5.15;2.78;;;;;;;22.37;67.14;100814.94;5065007;28;20521;-69
2022/08/01 00:16:33;;;;;;;4.10;2.45;;;;;;;22.06;67.47;100811.81;5068831;28;20044;-69
2022/08/01 00:18:59;;;;;;;5.10;2.58;;;;;;;22.49;66.75;100813.72;5067049;28;20079;-68
2022/08/01 00:21:26;;;;;;;5.82;2.78;;;;;;;22.54;65.97;100806.09;5068200;28;20547;-68
2022/08/01 00:23:52;;;;;;;3.33;2.33;;;;;;;22.51;66.03;100812.56;5068593;28;20045;-68
2022/08/01 00:26:19;;;;;;;5.75;2.97;;;;;;;22.56;66.45;100804.94;5067324;28;20492;-67
2022/08/01 00:28:45;;;;;;;6.07;2.75;;;;;;;22.52;66.41;100798.22;5067024;28;20567;-68
2022/08/01 00:31:11;;;;;;;4.78;2.47;;;;;;;22.55;66.20;100797.06;5066693;28;20650;-67
2022/08/01 00:33:39;;;;;;;5.45;2.95;;;;;;;22.64;66.04;100801.50;5066178;28;20040;-67
2022/08/01 00:36:05;;;;;;;3.80;2.72;;;;;;;22.41;67.08;100801.13;5067424;28;20109;-68
2022/08/01 00:38:32;;;;;;;4.30;2.50;;;;;;;22.44;67.33;100794.63;5066869;28;20528;-69
2022/08/01 00:40:58;;;;;;;2.92;2.42;;;;;;;22.50;67.35;100794.88;5058856;28;20123;-69
2022/08/01 00:43:24;;;;;;;4.55;2.45;;;;;;;22.36;67.57;100792.72;5073151;28;20070;-69
2022/08/01 00:45:51;;;;;;;5.22;2.70;;;;;;;22.49;67.51;100787.84;5065011;28;20094;-68
2022/08/01 00:48:17;;;;;;;4.20;2.50;;;;;;;22.38;68.09;100788.09;5065620;28;20053;-69
2022/08/01 00:50:45;;;;;;;4.45;2.83;;;;;;;22.58;67.07;100786.09;5065744;28;20048;-69
2022/08/01 00:53:11;;;;;;;3.72;2.50;;;;;;;22.43;68.01;100776.94;5065825;28;20064;-69
2022/08/01 00:55:38;;;;;;;3.78;2.45;;;;;;;22.49;67.80;100784.34;5063695;28;20048;-69
2022/08/01 00:58:04;;;;;;;6.05;2.90;;;;;;;22.56;67.47;100777.38;5066933;28;20044;-69
2022/08/01 01:00:31;;;;;;;5.68;2.70;;;;;;;22.72;67.25;100783.72;5066811;28;20041;-69
2022/08/01 01:02:58;;;;;;;4.72;2.90;;;;;;;22.50;67.99;100784.19;5066381;28;20049;-69
2022/08/01 01:05:24;;;;;;;5.10;2.60;;;;;;;22.49;68.59;100776.31;5067013;28;20106;-69
2022/08/01 01:08:00;;;;;;;3.15;2.50;;;;;;;22.55;68.15;100773.00;5066001;28;20455;-69
2022/08/01 01:10:33;;;;;;;4.78;2.50;;;;;;;22.42;69.60;100775.25;5065778;28;20040;-69
2022/08/01 01:13:04;;;;;;;3.30;2.47;;;;;;;22.62;68.87;100766.03;5067361;28;20048;-69
2022/08/01 01:15:36;;;;;;;3.90;3.03;;;;;;;21.98;71.44;100777.03;5080274;28;20113;-69
2022/08/01 01:18:08;;;;;;;5.43;3.45;;;;;;;22.21;70.87;100773.72;5086886;28;20044;-69
2022/08/01 01:20:38;;;;;;;5.40;2.90;;;;;;;22.20;70.90;100773.91;5071165;28;20412;-69
2022/08/01 01:23:22;;;;;;;4.25;3.13;;;;;;;22.32;70.94;100767.31;5066666;28;20712;-69
2022/08/01 01:26:02;;;;;;;4.55;3.00;;;;;;;22.41;70.48;100773.56;5066663;28;20048;-69
2022/08/01 01:28:35;;;;;;;3.22;2.60;;;;;;;22.46;70.77;100772.13;5060581;28;20049;-69
2022/08/01 01:31:07;;;;;;;3.40;2.80;;;;;;;22.24;71.46;100778.78;5066704;28;20052;-69
2022/08/01 01:33:35;;;;;;;6.33;2.93;;;;;;;22.23;71.32;100768.25;5065248;28;20506;-69
2022/08/01 01:36:05;;;;;;;6.43;3.20;;;;;;;22.21;71.63;100768.38;5065372;28;20048;-69
2022/08/01 01:38:34;;;;;;;4.85;3.10;;;;;;;;;;5067143;28;20488;-69
2022/08/01 01:41:03;;;;;;;9.23;3.17;;;;;;;22.27;71.80;100773.13;5065048;28;20125;-69
2022/08/01 01:43:30;;;;;;;5.45;3.45;;;;;;;22.56;70.79;100764.00;5066269;28;20041;-69
2022/08/01 01:45:57;;;;;;;4.25;2.92;;;;;;;22.59;70.64;100763.69;5066372;28;20045;-69
2022/08/01 01:48:27;;;;;;;5.93;3.35;;;;;;;22.68;70.08;100760.97;5064614;28;20045;-69
2022/08/01 01:50:56;;;;;;;6.72;3.28;;;;;;;22.32;71.86;100765.47;5064075;28;20094;-69
2022/08/01 01:53:24;;;;;;;4.57;3.08;;;;;;;22.21;72.19;100763.03;5065853;28;20099;-69
2022/08/01 01:55:54;;;;;;;8.75;3.28;;;;;;;22.50;71.59;100764.63;5067589;28;20098;-69
2022/08/01 01:58:23;;;;;;;6.97;3.42;;;;;;;22.40;71.75;100767.38;5063048;28;20094;-68
2022/08/01 02:00:51;;;;;;;8.65;3.38;;;;;;;22.56;71.56;100764.00;5062373;28;20044;-68
2022/08/01 02:03:19;;;;;;;4.35;2.97;;;;;;;22.56;70.86;100770.19;5064239;28;20098;-68
2022/08/01 02:05:48;;;;;;;5.13;3.10;;;;;;;22.78;70.34;100767.03;5065887;28;20389;-69
2022/08/01 02:08:17;;;;;;;5.38;2.88;;;;;;;23.02;69.88;100765.53;5065395;28;20496;-69
2022/08/01 02:11:17;;;;;;;5.60;3.17;;;;;;;22.92;69.65;100767.44;5063962;28;20169;-68
2022/08/01 02:13:33;;;;;;;5.63;3.20;;;;;;;23.02;69.24;100773.56;5064849;28;20048;-68
2022/08/01 02:16:01;;;;;;;4.82;3.28;;;;;;;22.50;71.72;100778.00;5065291;28;20372;-68
2022/08/01 02:18:28;;;;;;;4.22;3.10;;;;;;;22.63;71.38;100778.44;5066981;28;20052;-69
2022/08/01 02:20:58;;;;;;;6.40;3.20;;;;;;;22.77;70.61;100769.88;5073649;28;20044;-69
2022/08/01 02:23:27;;;;;;;3.83;3.13;;;;;;;22.49;71.92;100773.66;5065164;28;20496;-68
2022/08/01 02:25:56;;;;;;;5.28;3.58;;;;;;;22.46;72.17;100771.28;5066392;28;20052;-69
2022/08/01 02:28:28;;;;;;;7.30;3.30;;;;;;;22.55;71.88;100770.34;5066256;28;20052;-69
2022/08/01 02:30:57;;;;;;;7.45;3.17;;;;;;;22.68;71.57;100760.97;5057066;28;20040;-69
2022/08/01 02:33:31;;;;;;;5.43;3.33;;;;;;;22.78;71.13;100764.38;5063392;28;20072;-69
2022/08/01 02:36:01;;;;;;;5.00;3.45;;;;;;;22.71;71.39;100771.34;5055886;28;20143;-69
2022/08/01 02:38:31;;;;;;;6.10;3.30;;;;;;;22.56;72.00;100774.69;5046095;28;20041;-69
2022/08/01 02:41:04;;;;;;;7.00;3.53;;;;;;;22.47;72.42;100779.13;5056947;28;20053;-69
2022/08/01 02:43:33;;;;;;;8.50;3.53;;;;;;;22.20;73.58;100781.91;5065132;28;20044;-69
2022/08/01 02:46:03;;;;;;;5.97;3.40;;;;;;;22.37;72.99;100775.72;5064070;28;20044;-69
2022/08/01 02:48:32;;;;;;;5.57;3.67;;;;;;;22.16;73.66;100773.38;5064093;28;20040;-69
2022/08/01 02:51:02;;;;;;;8.32;3.30;;;;;;;22.08;74.48;100772.44;5064913;28;20102;-69
2022/08/01 02:53:36;;;;;;;6.10;3.72;;;;;;;22.00;74.74;100769.69;5044783;28;20095;-69
2022/08/01 02:56:05;;;;;;;5.30;3.65;;;;;;;21.95;75.04;100775.47;5061763;28;20052;-68
2022/08/01 02:58:34;;;;;;;5.40;3.60;;;;;;;22.10;74.45;100773.13;5064569;28;20052;-68
2022/08/01 03:01:02;;;;;;;8.65;3.90;;;;;;;22.42;73.08;100776.09;5065539;28;20071;-68
2022/08/01 03:03:30;;;;;;;8.80;3.90;;;;;;;22.45;72.58;100765.09;5064844;28;20044;-68
2022/08/01 03:05:58;;;;;;;6.47;3.65;;;;;;;22.65;72.01;100782.59;5063297;28;20057;-68
2022/08/01 03:08:26;;;;;;;6.60;4.20;;;;;;;22.84;71.25;100778.13;5065626;28;20040;-67
2022/08/01 03:10:54;;;;;;;6.50;4.18;;;;;;;22.51;72.22;100782.34;5065288;28;20045;-68
2022/08/01 03:13:22;;;;;;;6.10;3.75;;;;;;;22.90;71.04;100780.16;5062827;28;20095;-69
2022/08/01 03:15:49;;;;;;;6.47;3.65;;;;;;;22.64;72.16;100778.28;5064073;28;20040;-68
2022/08/01 03:18:18;;;;;;;8.20;4.13;;;;;;;22.56;72.24;100783.56;5064343;28;20057;-69
2022/08/01 03:20:46;;;;;;;5.10;3.88;;;;;;;22.70;71.87;100783.03;5063452;28;20392;-69
2022/08/01 03:23:14;;;;;;;7.15;4.13;;;;;;;22.60;72.63;100800.13;5063039;28;20105;-69
2022/08/01 03:25:45;;;;;;;6.43;3.80;;;;;;;22.45;72.72;100790.97;5064610;28;20122;-69
2022/08/01 03:28:14;;;;;;;7.28;4.45;;;;;;;22.31;73.75;100805.72;5063644;28;20079;-69
2022/08/01 03:30:43;;;;;;;7.13;4.07;;;;;;;22.32;73.97;100799.38;5063897;28;20097;-69
2022/08/01 03:33:10;;;;;;;6.00;4.07;;;;;;;22.58;73.04;100800.25;5062561;28;20052;-68
2022/08/01 03:35:43;;;;;;;7.22;4.20;;;;;;;22.62;72.82;100804.31;5064788;28;20090;-69
2022/08/01 03:38:11;;;;;;;6.15;4.35;;;;;;;22.62;72.81;100803.47;5067385;28;20515;-69
2022/08/01 03:40:41;;;;;;;8.45;5.07;;;;;;;22.53;73.25;100804.41;5062546;28;20098;-69
2022/08/01 03:43:18;;;;;;;6.78;4.65;;;;;;;22.51;73.56;100811.72;5064640;28;20488;-68
2022/08/01 03:45:51;;;;;;;7.47;4.50;;;;;;;22.60;73.13;100810.81;5062822;28;20040;-68
2022/08/01 03:48:19;;;;;;;5.45;4.13;;;;;;;22.80;72.36;100807.81;5064442;28;20048;-68
2022/08/01 03:50:48;;;;;;;6.05;4.05;;;;;;;22.79;71.98;100805.31;5063833;28;20052;-68
2022/08/01 03:53:16;;;;;;;10.70;4.40;;;;;;;22.60;72.80;100811.66;5062065;28;20049;-69
2022/08/01 03:55:44;;;;;;;5.70;4.40;;;;;;;22.22;75.21;100811.97;5063771;28;20063;-69
2022/08/01 03:58:13;;;;;;;7.28;4.40;;;;;;;22.27;76.29;100807.88;5064729;28;20044;-69
2022/08/01 04:00:41;;;;;;;8.43;4.80;;;;;;;22.44;76.67;100806.16;5061822;28;20622;-68
2022/08/01 04:03:11;;;;;;;6.10;4.90;;;;;;;22.56;76.77;100809.44;5063407;28;20074;-69
2022/08/01 04:05:37;;;;;;;8.50;5.43;;;;;;;22.51;77.14;100806.38;5062780;28;20064;-69
2022/08/01 04:08:04;;;;;;;7.80;5.50;;;;;;;22.37;78.29;100812.28;5063338;28;20049;-68
2022/08/01 04:10:30;;;;;;;7.60;5.53;;;;;;;22.29;79.16;100807.69;5062371;28;20662;-68
2022/08/01 04:12:57;;;;;;;7.07;5.30;;;;;;;22.28;79.07;100804.19;5063493;28;20573;-69
2022/08/01 04:15:24;;;;;;;8.85;5.00;;;;;;;22.23;79.62;100806.50;5049474;28;20044;-69
2022/08/01 04:17:51;;;;;;;9.32;5.50;;;;;;;22.30;79.49;100814.72;5044424;28;20044;-69
2022/08/01 04:20:17;;;;;;;7.75;5.30;;;;;;;22.53;78.26;100812.44;5043522;28;20405;-69
2022/08/01 04:22:44;;;;;;;10.40;4.80;;;;;;;22.38;79.05;100806.78;5042263;28;20037;-69
2022/08/01 04:25:14;;;;;;;7.28;5.28;;;;;;;22.34;79.54;100818.78;5047701;28;20048;-69
2022/08/01 04:27:46;;;;;;;11.10;5.40;;;;;;;22.60;78.31;100813.50;5064951;28;20101;-69
2022/08/01 04:30:14;;;;;;;9.00;5.95;;;;;;;22.49;79.08;100819.06;5063106;28;20048;-69
2022/08/01 04:32:45;;;;;;;11.50;5.90;;;;;;;22.40;79.42;100815.47;5063709;28;20041;-69
2022/08/01 04:35:16;;;;;;;9.63;5.75;;;;;;;22.25;80.09;100812.50;5063907;28;20117;-68
2022/08/01 04:37:45;;;;;;;10.50;6.32;;;;;;;22.28;79.94;100812.19;5062074;28;20091;-68
2022/08/01 04:40:12;;;;;;;6.93;5.47;;;;;;;22.55;78.98;100808.59;5062494;28;20048;-68
2022/08/01 04:42:40;;;;;;;6.15;5.18;;;;;;;22.48;78.88;100806.69;5062565;28;20095;-68
2022/08/01 04:45:08;;;;;;;7.47;5.60;;;;;;;22.56;79.49;100809.44;5061760;28;20060;-68
2022/08/01 04:47:36;;;;;;;7.97;5.50;;;;;;;22.76;78.29;100816.31;5064819;28;20044;-68
2022/08/01 04:50:07;;;;;;;9.18;5.97;;;;;;;22.90;77.88;100823.78;5061432;28;20561;-68
2022/08/01 04:52:35;;;;;;;7.17;5.67;;;;;;;23.07;77.28;100814.84;5062471;28;20043;-69
2022/08/01 04:55:01;;;;;;;10.20;6.07;;;;;;;23.17;76.74;100817.44;5057743;28;20049;-69
2022/08/01 04:57:28;;;;;;;8.43;5.93;;;;;;;23.25;75.90;100820.97;5063000;28;20048;-70
2022/08/01 04:59:56;;;;;;;11.10;6.40;;;;;;;23.37;75.28;100820.72;5062356;28;20045;-69
2022/08/01 05:02:23;;;;;;;10.40;5.85;;;;;;;23.50;74.56;100821.97;5065061;28;20044;-68
2022/08/01 05:04:50;;;;;;;7.18;5.57;;;;;;;23.35;74.65;100817.38;5066227;28;20088;-67
2022/08/01 05:07:17;;;;;;;7.93;5.30;;;;;;;23.19;74.81;100824.31;5066732;28;20569;-68
2022/08/01 05:09:45;;;;;;;6.43;5.00;;;;;;;23.11;76.50;100831.44;5066745;28;20049;-69
2022/08/01 05:12:12;;;;;;;6.75;5.30;;;;;;;23.19;75.75;100826.97;5066504;28;20041;-70
2022/08/01 05:14:38;;;;;;;6.88;4.97;;;;;;;23.02;75.87;100843.09;5066838;28;20094;-69
2022/08/01 05:17:07;;;;;;;7.03;5.00;;;;;;;22.93;75.71;100834.16;5067346;28;20048;-69
2022/08/01 05:19:34;;;;;;;10.30;4.90;;;;;;;22.93;76.20;100838.66;5067126;28;20047;-69
2022/08/01 05:22:01;;;;;;;7.72;4.70;;;;;;;22.83;76.58;100829.91;5066577;28;20044;-69
2022/08/01 05:24:29;;;;;;;6.00;5.15;;;;;;;23.04;76.06;100828.56;5066077;28;20110;-68
2022/08/01 05:26:55;;;;;;;7.97;4.70;;;;;;;22.67;76.69;100843.94;5067176;28;20428;-67
2022/08/01 05:29:22;;;;;;;6.78;4.50;;;;;;;22.75;76.45;100841.38;5064379;28;20557;-69
2022/08/01 05:31:48;;;;;;;6.20;4.75;;;;;;;22.77;76.96;100834.03;5065457;28;20049;-69
2022/08/01 05:34:15;;;;;;;6.03;4.72;;;;;;;22.58;77.49;100850.22;5068046;28;20063;-70
2022/08/01 05:36:41;;;;;;;6.47;4.20;;;;;;;22.48;78.11;100839.59;5066413;28;20055;-69
2022/08/01 05:39:10;;;;;;;6.10;4.75;;;;;;;22.37;79.36;100841.66;5067106;28;20045;-69
2022/08/01 05:41:37;;;;;;;7.60;4.30;;;;;;;22.44;79.14;100850.75;5066644;28;20574;-69
2022/08/01 05:44:04;;;;;;;7.93;4.32;;;;;;;22.29;80.20;100851.28;5066729;28;20090;-70
2022/08/01 05:46:31;;;;;;;5.97;4.70;;;;;;;22.24;80.63;100852.75;5065146;28;20045;-68
2022/08/01 05:48:58;;;;;;;7.00;4.10;;;;;;;21.84;82.62;100851.25;5066204;28;20046;-69
2022/08/01 05:51:24;;;;;;;5.70;4.57;;;;;;;21.70;83.89;100857.09;5066171;28;20118;-69
2022/08/01 05:53:51;;;;;;;10.80;4.60;;;;;;;21.84;83.82;100853.06;5065553;28;20557;-70
2022/08/01 05:56:18;;;;;;;5.57;4.82;;;;;;;22.04;82.54;100857.34;5067069;28;20052;-70
2022/08/01 05:58:45;;;;;;;6.45;4.97;;;;;;;21.67;84.78;100853.88;5064913;28;20048;-69
2022/08/01 06:01:12;;;;;;;5.13;3.58;;;;;;;21.74;84.27;100857.63;5066547;28;20587;-68
2022/08/01 06:03:38;;;;;;;6.00;3.13;;;;;;;21.92;83.59;100855.88;5065783;28;20056;-68
2022/08/01 06:06:05;;;;;;;5.15;3.38;;;;;;;22.04;82.91;100857.34;5065059;28;20040;-68
2022/08/01 06:08:32;;;;;;;5.88;3.72;;;;;;;22.27;82.95;100861.28;5066195;28;20067;-68
2022/08/01 06:10:59;;;;;;;4.40;2.67;;;;;;;22.28;82.39;100862.13;5064554;28;20482;-68
2022/08/01 06:13:26;;;;;;;4.10;2.58;;;;;;;21.64;83.46;100859.50;5064808;28;20518;-68
2022/08/01 06:15:53;;;;;;;5.78;2.78;;;;;;;22.01;83.16;100868.34;5066232;28;20098;-69
2022/08/01 06:18:20;;;;;;;4.82;3.28;;;;;;;21.91;83.15;100872.91;5066703;28;20048;-69
2022/08/01 06:20:46;;;;;;;4.63;3.05;;;;;;;22.11;82.31;100879.78;5069484;28;20064;-69
2022/08/01 06:23:13;;;;;;;9.65;3.20;;;;;;;22.09;81.80;100878.28;5081268;28;20613;-69
2022/08/01 06:25:40;;;;;;;3.78;2.63;;;;;;;21.75;83.55;100886.00;5066825;28;20090;-69
2022/08/01 06:28:06;;;;;;;5.18;2.78;;;;;;;21.84;83.02;100898.44;5082005;28;20456;-69
2022/08/01 06:30:32;;;;;;;4.57;2.70;;;;;;;21.69;83.41;100890.09;5082321;28;20102;-68
2022/08/01 06:33:00;;;;;;;4.05;2.92;;;;;;;22.18;81.01;100893.38;5071265;28;20058;-68
2022/08/01 06:35:29;;;;;;;3.90;2.70;;;;;;;22.16;80.53;100892.72;5085484;28;20040;-68
2022/08/01 06:37:56;;;;;;;5.85;2.90;;;;;;;22.17;82.75;100894.41;5086207;28;20052;-68
2022/08/01 06:40:22;;;;;;;3.70;2.35;;;;;;;23.09;81.97;100898.47;5073523;28;20106;-68
2022/08/01 06:42:48;;;;;;;3.20;2.17;;;;;;;23.52;76.86;100894.09;5060558;28;20043;-68
2022/08/01 06:45:15;;;;;;;4.55;2.10;;;;;;;23.12;75.11;100900.84;5066289;28;20090;-69
2022/08/01 06:47:43;;;;;;;2.70;2.00;;;;;;;23.09;75.41;100911.00;5079379;28;20044;-69
2022/08/01 06:50:13;;;;;;;6.03;2.20;;;;;;;23.14;74.42;100912.19;5064186;28;20048;-69
2022/08/01 06:52:40;;;;;;;4.32;2.28;;;;;;;23.01;75.11;100905.59;5063622;28;20049;-70
2022/08/01 06:55:07;;;;;;;2.90;1.90;;;;;;;23.07;74.49;100911.16;5077322;28;20055;-69
2022/08/01 06:57:33;;;;;;;4.38;2.03;;;;;;;23.11;74.68;100909.84;5075366;28;20495;-69
2022/08/01 07:00:03;;;;;;;6.70;2.20;;;;;;;23.36;73.89;100910.84;5064692;28;20044;-69
2022/08/01 07:02:29;;;;;;;3.50;2.60;;;;;;;23.51;72.64;100903.09;5064362;28;20447;-69
2022/08/01 07:04:59;;;;;;;4.55;2.92;;;;;;;23.18;73.18;100913.56;5064585;28;20097;-69
2022/08/01 07:07:27;;;;;;;3.45;2.50;;;;;;;23.49;73.37;100915.81;5062884;28;20094;-69
2022/08/01 07:09:54;;;;;;;3.60;2.65;;;;;;;23.56;73.55;100906.16;5081555;28;20056;-69
2022/08/01 07:12:20;;;;;;;3.50;2.97;;;;;;;24.12;71.02;100922.50;5064293;28;20121;-69
2022/08/01 07:14:46;;;;;;;9.25;2.90;;;;;;;23.88;70.56;100910.81;5079418;28;20043;-69
2022/08/01 07:17:13;;;;;;;4.00;2.42;;;;;;;23.93;70.53;100919.22;5085246;28;20487;-70
2022/08/01 07:19:39;;;;;;;3.88;2.33;;;;;;;23.86;71.32;100928.91;5081992;28;20040;-70
2022/08/01 07:22:05;;;;;;;3.90;1.95;;;;;;;23.50;70.30;100923.66;5069283;28;20048;-70
2022/08/01 07:24:33;;;;;;;4.88;2.50;;;;;;;23.56;71.20;100923.06;5065421;28;20041;-70
2022/08/01 07:26:59;;;;;;;4.88;2.75;;;;;;;23.63;70.98;100926.78;5072539;28;20051;-70
2022/08/01 07:29:26;;;;;;;3.65;2.60;;;;;;;23.72;71.59;100920.47;5083077;28;20048;-70
2022/08/01 07:31:52;;;;;;;4.07;2.67;;;;;;;23.69;71.67;100923.47;5083793;28;20101;-70
2022/08/01 07:34:19;;;;;;;6.85;3.35;;;;;;;23.71;71.49;100920.63;5066599;28;20048;-70
2022/08/01 07:36:45;;;;;;;4.05;2.92;;;;;;;24.13;70.26;100926.88;5071221;28;20040;-70
2022/08/01 07:39:12;;;;;;;6.38;2.97;;;;;;;24.27;69.14;100924.59;5081898;28;21093;-70
2022/08/01 07:41:39;;;;;;;3.10;2.72;;;;;;;24.44;70.88;100926.28;5066207;28;20045;-70
2022/08/01 07:44:06;;;;;;;4.70;3.00;;;;;;;25.03;67.63;100931.41;5065401;28;20075;-70
2022/08/01 07:46:32;;;;;;;5.57;2.80;;;;;;;25.51;66.30;100925.19;5063539;28;20052;-70
2022/08/01 07:48:58;;;;;;;4.97;2.70;;;;;;;25.50;65.98;100931.53;5063305;28;20052;-70
2022/08/01 07:51:25;;;;;;;2.85;2.25;;;;;;;25.15;64.57;100935.44;5080872;28;20109;-70
2022/08/01 07:53:51;;;;;;;3.88;2.35;;;;;;;24.95;65.41;100931.41;5078935;28;20113;-70
2022/08/01 07:56:17;;;;;;;4.70;2.40;;;;;;;25.21;63.44;100939.28;5082478;28;20044;-70
2022/08/01 07:58:46;;;;;;;2.45;1.95;;;;;;;24.69;65.18;100947.63;5079481;28;20066;-70
2022/08/01 08:01:13;;;;;;;2.97;1.90;;;;;;;24.09;67.45;100949.59;5062211;28;20562;-69
2022/08/01 08:03:39;;;;;;;2.30;1.80;;;;;;;23.96;69.06;100957.25;5060776;28;20044;-70
2022/08/01 08:06:06;;;;;;;2.42;1.60;;;;;;;23.50;72.32;100954.97;5064623;28;20044;-70
2022/08/01 08:08:34;;;;;;;4.72;1.80;;;;;;;23.58;72.35;100952.31;5060781;28;20101;-69
2022/08/01 08:11:00;;;;;;;3.22;1.60;;;;;;;23.32;72.90;100959.50;5057548;28;20689;-69
2022/08/01 08:13:27;;;;;;;3.05;1.85;;;;;;;23.38;74.88;100956.19;5064527;28;20044;-69
2022/08/01 08:15:55;;;;;;;3.80;1.90;;;;;;;23.51;75.00;100952.13;5063696;28;20106;-69
2022/08/01 08:18:21;;;;;;;2.72;1.98;;;;;;;23.64;74.61;100947.22;5078203;28;20068;-69
2022/08/01 08:20:48;;;;;;;4.20;2.28;;;;;;;24.21;74.29;100947.50;5072645;28;20487;-70
2022/08/01 08:25:58;;;;;;;2.63;1.50;;;;;;;24.65;68.62;100950.78;5084189;28;20193;-70
2022/08/01 08:28:24;;;;;;;2.42;1.52;;;;;;;24.56;67.97;100952.63;5083182;28;20113;-74
2022/08/01 08:30:50;;;;;;;3.17;1.40;;;;;;;24.37;66.82;100947.56;5067711;28;20105;-74
2022/08/01 08:33:18;;;;;;;3.17;1.17;;;;;;;23.71;68.16;100952.75;5073920;28;20106;-70
2022/08/01 08:35:44;;;;;;;3.75;1.42;;;;;;;23.44;68.89;100955.59;5063255;28;20079;-70
2022/08/01 08:38:11;;;;;;;2.53;1.50;;;;;;;23.25;69.59;100962.78;5066036;28;20093;-70
2022/08/01 08:40:37;;;;;;;2.58;1.38;;;;;;;23.08;71.17;100965.47;5066501;28;20040;-70
2022/08/01 08:43:06;;;;;;;5.30;1.70;;;;;;;23.27;70.49;100970.66;5061538;28;20135;-70
2022/08/01 08:45:33;;;;;;;2.85;1.40;;;;;;;23.53;69.51;100970.72;5075301;28;20044;-70
2022/08/01 08:48:00;;;;;;;3.22;1.67;;;;;;;23.42;70.20;100977.16;5083407;28;20553;-70
2022/08/01 08:50:29;;;;;;;3.60;1.75;;;;;;;23.31;70.00;100981.91;5086153;28;20097;-70
2022/08/01 08:52:56;;;;;;;3.47;2.03;;;;;;;23.33;69.42;100985.25;5077106;28;20066;-70
2022/08/01 08:55:24;;;;;;;2.72;1.60;;;;;;;22.99;70.20;100993.13;5075510;28;20044;-70
2022/08/01 08:57:51;;;;;;;2.72;1.40;;;;;;;22.70;70.70;100991.53;5045789;28;20041;-69
2022/08/01 09:00:17;;;;;;;2.47;1.25;;;;;;;22.83;68.98;100985.81;5051327;28;20045;-69
2022/08/01 09:02:45;;;;;;;1.50;1.05;;;;;;;23.07;67.48;100996.75;5073502;28;20043;-69
2022/08/01 09:05:12;;;;;;;3.22;1.30;;;;;;;23.25;66.92;100996.72;5086400;28;20118;-69
2022/08/01 09:07:39;;;;;;;2.38;1.10;;;;;;;23.63;66.09;101001.75;5071623;28;20424;-69
2022/08/01 09:10:09;;;;;;;1.65;1.10;;;;;;;23.48;65.54;100995.28;5079848;28;20040;-70
2022/08/01 09:12:37;;;;;;;2.38;1.17;;;;;;;23.77;65.56;101006.50;5070853;28;20044;-70
2022/08/01 09:15:04;;;;;;;1.52;1.10;;;;;;;24.00;64.68;101006.81;5066826;28;20052;-70
2022/08/01 09:17:41;;;;;;;2.03;1.00;;;;;;;24.42;64.45;101003.34;5067446;28;20098;-70
2022/08/01 09:20:08;;;;;;;2.78;1.10;;;;;;;25.05;62.46;101011.75;5066752;28;20050;-70
2022/08/01 09:22:35;;;;;;;2.50;1.20;;;;;;;25.39;60.87;101004.38;5065477;28;20044;-69
2022/08/01 09:25:05;;;;;;;2.40;1.10;;;;;;;25.77;58.83;101020.81;5067004;28;20071;-69
2022/08/01 09:27:33;;;;;;;1.20;0.80;;;;;;;25.63;59.22;101014.28;5087266;28;20059;-69
2022/08/01 09:30:10;;;;;;;2.75;0.93;;;;;;;25.54;56.99;101020.66;5069533;28;20040;-70
2022/08/01 09:32:36;;;;;;;1.08;0.82;;;;;;;25.74;56.81;101016.63;5066975;28;20399;-70
2022/08/01 09:35:23;;;;;;;2.50;1.05;;;;;;;25.52;57.42;101018.16;5076367;28;20527;-70
2022/08/01 09:37:49;;;;;;;1.80;0.82;;;;;;;25.43;58.51;101008.41;5065512;28;20049;-70
2022/08/01 09:40:17;;;;;;;2.50;1.00;;;;;;;25.82;57.21;101019.31;5066131;28;20048;-70
2022/08/01 09:42:48;;;;;;;1.33;0.90;;;;;;;25.65;56.46;101013.09;5069369;28;20369;-70
2022/08/01 09:45:32;;;;;;;2.97;0.90;;;;;;;25.86;56.01;101009.91;5074579;28;20502;-70
2022/08/01 09:48:07;;;;;;;4.15;0.80;;;;;;;26.03;54.49;101008.00;5065322;28;20048;-70
2022/08/01 09:50:41;;;;;;;3.50;1.00;;;;;;;26.04;54.35;101015.06;5066046;28;20102;-71
2022/08/01 09:53:07;;;;;;;2.83;0.93;;;;;;;26.02;54.30;101017.91;5065545;28;20049;-71
2022/08/01 09:55:36;;;;;;;3.00;1.45;;;;;;;25.05;57.04;101022.50;5065672;28;20063;-71
2022/08/01 09:58:04;;;;;;;2.70;0.95;;;;;;;24.98;56.49;101033.03;5067024;28;20106;-70
2022/08/01 10:00:31;;;;;;;1.73;0.80;;;;;;;24.82;57.03;101034.81;5064796;28;20045;-71
2022/08/01 10:02:57;;;;;;;1.92;0.80;;;;;;;24.75;57.27;101033.78;5065263;28;20110;-71
2022/08/01 10:05:32;;;;;;;1.77;0.77;;;;;;;24.71;57.69;101035.97;5065992;28;20429;-71
2022/08/01 10:08:01;;;;;;;6.85;1.20;;;;;;;24.73;57.41;101039.31;5066685;28;20049;-71
2022/08/01 10:10:27;;;;;;;2.45;0.88;;;;;;;24.77;58.40;101040.66;5064211;28;20543;-71
2022/08/01 10:12:56;;;;;;;4.35;0.70;;;;;;;24.96;58.63;101045.78;5064288;28;20175;-71
2022/08/01 10:15:24;;;;;;;1.65;0.90;;;;;;;24.91;58.48;101036.53;5063473;28;20535;-70
2022/08/01 10:17:54;;;;;;;1.63;0.77;;;;;;;25.24;58.41;101042.81;5080349;28;20071;-70
2022/08/01 10:20:23;;;;;;;1.85;0.90;;;;;;;25.70;58.06;101044.00;5085198;28;20103;-71
2022/08/01 10:22:50;;;;;;;1.15;0.70;;;;;;;25.73;56.69;101040.97;5085161;28;20130;-71
2022/08/01 10:25:18;;;;;;;7.57;0.90;;;;;;;26.15;56.95;101036.19;5086988;28;20486;-71
2022/08/01 10:27:48;;;;;;;3.03;0.93;;;;;;;26.24;55.80;101034.34;5084975;28;20063;-71
2022/08/01 10:30:16;;;;;;;5.00;1.00;;;;;;;26.32;54.36;101040.50;5078147;28;20067;-71
2022/08/01 10:32:46;;;;;;;1.67;0.90;;;;;;;26.52;54.06;101033.72;5063419;28;20044;-71
2022/08/01 10:35:16;;;;;;;2.63;0.77;;;;;;;26.62;53.50;101028.09;5064908;28;20040;-71
2022/08/01 10:37:45;;;;;;;2.25;0.80;;;;;;;26.56;52.64;101034.22;5066418;28;21064;-71
2022/08/01 10:40:12;;;;;;;5.72;0.80;;;;;;;26.84;51.24;101031.88;5064263;28;20048;-71
2022/08/01 10:42:40;;;;;;;4.82;0.88;;;;;;;26.90;52.55;101037.38;5064738;28;20041;-71
2022/08/01 10:45:08;;;;;;;1.08;0.63;;;;;;;26.80;51.40;101030.53;5066707;28;20407;-71
2022/08/01 10:47:41;;;;;;;2.17;0.80;;;;;;;26.63;51.94;101032.47;5066574;28;20040;-71
2022/08/01 10:50:16;;;;;;;2.20;0.80;;;;;;;26.81;50.69;101035.75;5063034;28;20048;-71
2022/08/01 10:53:03;;;;;;;2.17;0.80;;;;;;;27.08;51.73;101034.44;5064566;28;20422;-71
2022/08/01 10:55:29;;;;;;;2.25;0.80;;;;;;;27.66;50.98;101038.34;5064539;28;20048;-71
2022/08/01 10:57:55;;;;;;;4.53;0.70;;;;;;;27.64;49.08;101040.41;5064623;28;20102;-71
2022/08/01 11:00:22;;;;;;;2.10;0.75;;;;;;;27.39;49.02;101042.41;5065808;28;20048;-71
2022/08/01 11:03:01;;;;;;;0.70;0.60;;;;;;;27.20;50.72;101034.84;5075621;28;20040;-71
2022/08/01 11:05:31;;;;;;;1.60;0.70;;;;;;;26.72;50.24;101036.78;5084927;28;20123;-70
2022/08/01 11:08:03;;;;;;;1.42;0.80;;;;;;;26.74;50.67;101029.41;5082585;28;20052;-70
2022/08/01 11:10:38;;;;;;;4.43;1.00;;;;;;;26.90;52.32;101041.97;5064272;28;20040;-70
2022/08/01 11:13:07;;;;;;;1.65;0.70;;;;;;;26.86;51.74;101036.09;5065487;28;20052;-70
2022/08/01 11:15:34;;;;;;;1.73;0.80;;;;;;;26.92;51.68;101042.59;5064329;28;20086;-70
2022/08/01 11:18:04;;;;;;;1.02;0.63;;;;;;;26.65;52.05;101041.19;5064944;28;20428;-70
2022/08/01 11:20:32;;;;;;;2.22;0.90;;;;;;;26.69;51.44;101044.38;5062944;28;20461;-71
2022/08/01 11:23:28;;;;;;;1.67;0.90;;;;;;;26.51;51.37;101047.31;5066265;28;20450;-71
2022/08/01 11:26:14;;;;;;;3.60;0.70;;;;;;;26.30;51.88;101047.09;5063123;28;20096;-71
2022/08/01 11:28:44;;;;;;;1.33;0.60;;;;;;;26.32;53.09;101059.31;5078048;28;20048;-71
2022/08/01 11:31:31;;;;;;;3.00;0.90;;;;;;;26.31;53.65;101046.09;5067076;28;20063;-71
2022/08/01 11:33:59;;;;;;;2.35;0.90;;;;;;;26.13;54.03;101043.56;5070817;28;20562;-71